createdAt,value
2023-05-05T00:00:12.201Z,13.80
2023-05-05T00:02:41.095Z,13.84
2023-05-05T00:05:08.127Z,13.88
2023-05-05T00:07:34.625Z,13.92
2023-05-05T00:10:01.069Z,13.89
2023-05-05T00:12:28.026Z,13.84
2023-05-05T00:14:59.568Z,13.77
2023-05-05T00:17:26.132Z,13.69
2023-05-05T00:19:52.796Z,13.72
2023-05-05T00:22:19.304Z,13.76
2023-05-05T00:24:45.812Z,13.76
2023-05-05T00:27:12.303Z,13.84
2023-05-05T00:29:38.910Z,13.83
2023-05-05T00:32:05.478Z,13.80
2023-05-05T00:34:31.981Z,13.80
2023-05-05T00:36:58.461Z,13.83
2023-05-05T00:39:25.234Z,13.87
2023-05-05T00:41:58.758Z,13.81
2023-05-05T00:44:39.207Z,13.74
2023-05-05T00:47:12.956Z,13.78
2023-05-05T00:49:39.906Z,13.86
2023-05-05T00:52:07.348Z,13.89
2023-05-05T00:54:38.152Z,13.85
2023-05-05T00:57:04.772Z,13.93
2023-05-05T00:59:34.013Z,13.89
2023-05-05T01:02:01.151Z,13.75
2023-05-05T01:04:30.535Z,13.75
2023-05-05T01:08:00.481Z,13.59
2023-05-05T01:11:24.478Z,13.57
2023-05-05T01:14:16.947Z,13.33
2023-05-05T01:17:05.457Z,13.24
2023-05-05T01:20:07.816Z,13.08
2023-05-05T01:22:51.281Z,13.01
2023-05-05T01:25:41.313Z,12.89
2023-05-05T01:28:48.468Z,12.81
2023-05-05T01:31:31.472Z,12.80
2023-05-05T01:34:08.446Z,12.78
2023-05-05T01:36:47.836Z,12.81
2023-05-05T01:39:16.992Z,12.87
2023-05-05T01:41:59.490Z,12.87
2023-05-05T01:44:29.535Z,12.89
2023-05-05T01:46:56.619Z,12.93
2023-05-05T01:49:23.830Z,12.91
2023-05-05T01:51:55.560Z,12.82
2023-05-05T01:54:25.767Z,12.82
2023-05-05T01:57:01.407Z,12.64
2023-05-05T01:59:28.916Z,12.73
2023-05-05T02:01:59.018Z,12.73
2023-05-05T02:04:29.848Z,12.43
2023-05-05T02:07:02.556Z,12.41
2023-05-05T02:09:45.576Z,12.50
2023-05-05T02:12:13.204Z,12.51
2023-05-05T02:14:44.031Z,12.33
2023-05-05T02:17:13.156Z,12.28
2023-05-05T02:19:45.684Z,12.23
2023-05-05T02:22:12.278Z,12.29
2023-05-05T02:24:38.878Z,12.20
2023-05-05T02:27:07.897Z,12.23
2023-05-05T02:29:41.904Z,12.18
2023-05-05T02:32:33.476Z,11.98
2023-05-05T02:35:10.839Z,11.96
2023-05-05T02:37:44.802Z,12.04
2023-05-05T02:40:27.212Z,12.06
2023-05-05T02:42:57.299Z,12.03
2023-05-05T02:45:26.650Z,12.00
2023-05-05T02:47:53.652Z,12.00
2023-05-05T02:50:20.812Z,12.01
2023-05-05T02:52:47.805Z,11.99
2023-05-05T02:55:15.116Z,11.99
2023-05-05T02:58:07.575Z,11.74
2023-05-05T03:00:47.808Z,11.72
2023-05-05T03:03:22.098Z,11.75
2023-05-05T03:06:05.124Z,11.67
2023-05-05T03:09:03.048Z,11.54
2023-05-05T03:11:38.301Z,11.55
2023-05-05T03:14:13.263Z,11.53
2023-05-05T03:16:49.035Z,11.54
2023-05-05T03:19:20.146Z,11.32
2023-05-05T03:21:48.124Z,11.39
2023-05-05T03:24:19.844Z,11.32
2023-05-05T03:26:49.896Z,11.41
2023-05-05T03:29:16.973Z,11.31
2023-05-05T03:31:43.537Z,11.29
2023-05-05T03:34:10.090Z,11.26
2023-05-05T03:36:39.844Z,11.20
2023-05-05T03:39:06.370Z,11.13
2023-05-05T03:41:35.792Z,11.08
2023-05-05T03:44:02.228Z,10.94
2023-05-05T03:46:28.834Z,10.93
2023-05-05T03:48:57.555Z,10.63
2023-05-05T03:51:24.953Z,10.67
2023-05-05T03:53:51.740Z,10.68
2023-05-05T03:56:18.214Z,10.66
2023-05-05T03:58:44.734Z,10.68
2023-05-05T04:01:11.682Z,10.68
2023-05-05T04:03:39.127Z,10.58
2023-05-05T04:06:06.016Z,10.67
2023-05-05T04:08:32.603Z,10.73
2023-05-05T04:10:59.174Z,10.82
2023-05-05T04:13:25.772Z,10.87
2023-05-05T04:15:52.303Z,10.87
2023-05-05T04:18:18.916Z,10.91
2023-05-05T04:20:55.487Z,10.77
2023-05-05T04:23:21.961Z,10.41
2023-05-05T04:25:48.416Z,10.72
2023-05-05T04:28:14.980Z,10.80
2023-05-05T04:30:41.596Z,10.80
2023-05-05T04:33:11.090Z,10.67
2023-05-05T04:35:37.881Z,10.75
2023-05-05T04:38:04.405Z,10.87
2023-05-05T04:40:31.179Z,10.94
2023-05-05T04:42:57.655Z,11.00
2023-05-05T04:45:25.092Z,11.10
2023-05-05T04:47:51.638Z,11.03
2023-05-05T04:50:18.143Z,11.02
2023-05-05T04:52:44.712Z,11.00
2023-05-05T04:55:11.524Z,11.08
2023-05-05T04:57:38.054Z,11.18
2023-05-05T05:00:05.597Z,11.29
2023-05-05T05:02:32.325Z,11.37
2023-05-05T05:04:58.934Z,11.44
2023-05-05T05:07:26.015Z,11.49
2023-05-05T05:09:52.572Z,11.39
2023-05-05T05:12:19.028Z,11.33
2023-05-05T05:14:45.556Z,11.37
2023-05-05T05:17:12.064Z,11.26
2023-05-05T05:19:39.071Z,11.24
2023-05-05T05:22:05.505Z,11.40
2023-05-05T05:24:31.957Z,11.53
2023-05-05T05:26:58.626Z,11.61
2023-05-05T05:29:25.303Z,11.68
2023-05-05T05:32:09.634Z,11.74
2023-05-05T05:34:36.299Z,11.88
2023-05-05T05:37:02.793Z,12.02
2023-05-05T05:39:29.265Z,12.15
2023-05-05T05:41:58.469Z,12.23
2023-05-05T05:44:25.068Z,12.33
2023-05-05T05:46:51.567Z,12.42
2023-05-05T05:49:18.072Z,12.53
2023-05-05T05:51:44.584Z,12.55
2023-05-05T05:54:11.088Z,12.67
2023-05-05T05:56:37.547Z,12.74
2023-05-05T05:59:07.970Z,12.77
2023-05-05T06:01:35.371Z,12.92
2023-05-05T06:04:04.784Z,13.02
2023-05-05T06:06:31.513Z,13.13
2023-05-05T06:08:58.019Z,13.23
2023-05-05T06:11:24.498Z,13.38
2023-05-05T06:13:53.521Z,13.54
2023-05-05T06:16:19.992Z,13.69
2023-05-05T06:18:57.763Z,13.81
2023-05-05T06:21:24.320Z,14.01
2023-05-05T06:23:50.953Z,14.09
2023-05-05T06:26:17.441Z,14.29
2023-05-05T06:28:44.039Z,14.51
2023-05-05T06:31:15.075Z,14.74
2023-05-05T06:33:41.681Z,14.99
2023-05-05T06:36:08.922Z,15.19
2023-05-05T06:38:35.467Z,15.41
2023-05-05T06:41:02.454Z,15.58
2023-05-05T06:43:29.466Z,15.79
2023-05-05T06:45:56.104Z,15.95
2023-05-05T06:48:22.565Z,16.18
2023-05-05T06:50:49.276Z,16.40
2023-05-05T06:53:15.939Z,16.56
2023-05-05T06:55:47.472Z,16.62
2023-05-05T06:58:14.205Z,16.80
2023-05-05T07:00:41.105Z,16.79
2023-05-05T07:03:08.015Z,16.90
2023-05-05T07:05:34.746Z,17.07
2023-05-05T07:08:01.382Z,17.14
2023-05-05T07:10:28.248Z,17.29
2023-05-05T07:12:55.252Z,17.36
2023-05-05T07:15:28.584Z,17.53
2023-05-05T07:17:56.507Z,17.67
2023-05-05T07:20:23.236Z,17.80
2023-05-05T07:22:49.888Z,17.80
2023-05-05T07:25:16.413Z,17.79
2023-05-05T07:27:43.228Z,17.87
2023-05-05T07:30:13.434Z,17.86
2023-05-05T07:32:43.083Z,17.95
2023-05-05T07:35:09.824Z,18.08
2023-05-05T07:37:36.350Z,18.21
2023-05-05T07:40:03.081Z,18.31
2023-05-05T07:42:38.317Z,18.49
2023-05-05T07:45:06.180Z,18.62
2023-05-05T07:47:38.860Z,18.58
2023-05-05T07:50:06.636Z,18.98
2023-05-05T07:52:45.206Z,18.98
2023-05-05T07:55:14.788Z,18.91
2023-05-05T07:57:41.441Z,19.07
2023-05-05T08:00:09.457Z,19.16
2023-05-05T08:02:36.334Z,19.55
2023-05-05T08:05:02.951Z,19.50
2023-05-05T08:07:29.430Z,19.57
2023-05-05T08:09:56.008Z,19.28
2023-05-05T08:12:22.545Z,19.44
2023-05-05T08:14:49.056Z,19.58
2023-05-05T08:17:22.805Z,19.79
2023-05-05T08:19:52.192Z,19.79
2023-05-05T08:22:18.911Z,19.93
2023-05-05T08:24:48.199Z,19.98
2023-05-05T08:27:14.932Z,19.87
2023-05-05T08:29:41.419Z,19.97
2023-05-05T08:32:11.156Z,19.73
2023-05-05T08:34:40.437Z,20.02
2023-05-05T08:37:06.992Z,20.13
2023-05-05T08:39:33.557Z,20.22
2023-05-05T08:42:00.135Z,20.25
2023-05-05T08:44:37.920Z,20.26
2023-05-05T08:47:05.600Z,20.24
2023-05-05T08:49:47.096Z,20.23
2023-05-05T08:52:24.165Z,20.26
2023-05-05T08:55:06.666Z,20.42
2023-05-05T08:57:57.661Z,20.60
2023-05-05T09:00:26.912Z,20.70
2023-05-05T09:02:58.099Z,20.72
2023-05-05T09:05:26.386Z,20.89
2023-05-05T09:07:53.328Z,21.09
2023-05-05T09:10:19.970Z,21.21
2023-05-05T09:12:46.756Z,21.39
2023-05-05T09:15:15.165Z,21.54
2023-05-05T09:17:42.981Z,21.59
2023-05-05T09:20:15.089Z,21.57
2023-05-05T09:22:44.558Z,21.64
2023-05-05T09:25:14.424Z,21.79
2023-05-05T09:27:46.985Z,21.53
2023-05-05T09:30:26.938Z,21.40
2023-05-05T09:32:55.314Z,21.64
2023-05-05T09:35:23.430Z,21.67
2023-05-05T09:37:49.968Z,21.67
2023-05-05T09:40:19.983Z,21.85
2023-05-05T09:42:47.532Z,21.70
2023-05-05T09:45:19.953Z,21.54
2023-05-05T09:47:47.963Z,21.80
2023-05-05T09:50:18.385Z,21.99
2023-05-05T09:53:02.461Z,21.98
2023-05-05T09:55:33.176Z,22.21
2023-05-05T09:58:29.751Z,22.29
2023-05-05T10:00:58.437Z,22.35
2023-05-05T10:03:25.929Z,22.16
2023-05-05T10:06:00.870Z,22.17
2023-05-05T10:08:31.282Z,22.30
2023-05-05T10:11:07.068Z,22.60
2023-05-05T10:13:37.896Z,22.32
2023-05-05T10:16:09.115Z,22.16
2023-05-05T10:18:41.657Z,22.16
2023-05-05T10:21:09.174Z,22.33
2023-05-05T10:23:49.344Z,22.24
2023-05-05T10:26:19.663Z,22.40
2023-05-05T10:28:55.474Z,22.56
2023-05-05T10:31:41.735Z,22.56
2023-05-05T10:34:22.758Z,22.42
2023-05-05T10:36:51.328Z,22.39
2023-05-05T10:39:19.872Z,22.55
2023-05-05T10:41:48.250Z,22.74
2023-05-05T10:44:15.449Z,22.28
2023-05-05T10:46:43.178Z,22.35
2023-05-05T10:49:37.378Z,22.26
2023-05-05T10:52:25.830Z,22.27
2023-05-05T10:55:37.078Z,22.35
2023-05-05T10:58:03.590Z,22.48
2023-05-05T11:00:39.547Z,22.42
2023-05-05T11:03:18.162Z,22.58
2023-05-05T11:06:14.110Z,22.71
2023-05-05T11:08:43.705Z,22.93
2023-05-05T11:11:12.354Z,23.13
2023-05-05T11:13:40.531Z,23.27
2023-05-05T11:16:48.126Z,23.42
2023-05-05T11:19:42.605Z,23.61
2023-05-05T11:22:10.672Z,23.55
2023-05-05T11:24:39.576Z,23.67
2023-05-05T11:27:06.848Z,23.85
2023-05-05T11:30:06.800Z,23.66
2023-05-05T11:32:36.632Z,23.80
2023-05-05T11:35:03.968Z,23.77
2023-05-05T11:37:30.482Z,23.73
2023-05-05T11:40:30.778Z,23.53
2023-05-05T11:43:07.300Z,23.54
2023-05-05T11:45:34.593Z,23.24
2023-05-05T11:48:27.009Z,22.85
2023-05-05T11:50:54.571Z,22.80
2023-05-05T11:53:21.277Z,22.64
2023-05-05T11:55:47.830Z,22.45
2023-05-05T11:58:20.958Z,22.39
2023-05-05T12:00:47.937Z,21.74
2023-05-05T12:03:14.691Z,20.91
2023-05-05T12:05:41.753Z,20.58
2023-05-05T12:08:08.397Z,19.90
2023-05-05T12:10:34.887Z,19.64
2023-05-05T12:13:01.444Z,19.51
2023-05-05T12:15:30.393Z,19.31
2023-05-05T12:17:56.926Z,19.14
2023-05-05T12:20:34.410Z,19.04
2023-05-05T12:23:04.780Z,18.99
2023-05-05T12:25:40.909Z,18.87
2023-05-05T12:28:08.949Z,18.95
2023-05-05T12:30:35.896Z,19.00
2023-05-05T12:33:05.209Z,19.07
2023-05-05T12:35:33.248Z,19.21
2023-05-05T12:37:59.838Z,19.29
2023-05-05T12:40:52.862Z,19.27
2023-05-05T12:43:35.302Z,19.20
2023-05-05T12:46:10.939Z,19.06
2023-05-05T12:48:40.744Z,19.35
2023-05-05T12:51:20.546Z,19.68
2023-05-05T12:53:49.382Z,20.08
2023-05-05T12:56:35.028Z,20.11
2023-05-05T12:59:07.499Z,20.27
2023-05-05T13:01:56.124Z,20.10
2023-05-05T13:04:25.588Z,20.11
2023-05-05T13:07:14.072Z,20.12
2023-05-05T13:09:40.794Z,20.78
2023-05-05T13:12:12.587Z,20.63
2023-05-05T13:14:40.644Z,20.39
2023-05-05T13:17:07.165Z,20.23
2023-05-05T13:19:35.640Z,20.02
2023-05-05T13:22:02.252Z,19.96
2023-05-05T13:24:38.601Z,19.99
2023-05-05T13:27:13.716Z,19.88
2023-05-05T13:29:41.528Z,19.93
2023-05-05T13:32:07.992Z,20.29
2023-05-05T13:34:34.765Z,20.16
2023-05-05T13:37:01.325Z,20.24
2023-05-05T13:39:27.808Z,20.09
2023-05-05T13:41:54.283Z,20.09
2023-05-05T13:44:20.998Z,19.89
2023-05-05T13:46:47.714Z,20.00
2023-05-05T13:49:14.255Z,20.24
2023-05-05T13:51:40.822Z,20.12
2023-05-05T13:54:07.517Z,20.15
2023-05-05T13:56:34.741Z,19.89
2023-05-05T13:59:02.310Z,19.86
2023-05-05T14:01:29.628Z,19.66
2023-05-05T14:03:57.541Z,19.64
2023-05-05T14:06:24.812Z,19.57
2023-05-05T14:08:54.012Z,19.28
2023-05-05T14:11:20.962Z,19.07
2023-05-05T14:13:48.024Z,18.92
2023-05-05T14:16:14.777Z,18.72
2023-05-05T14:18:44.130Z,18.77
2023-05-05T14:21:11.160Z,18.81
2023-05-05T14:23:41.276Z,18.88
2023-05-05T14:26:08.879Z,18.87
2023-05-05T14:28:35.615Z,18.91
2023-05-05T14:31:02.116Z,19.07
2023-05-05T14:33:28.647Z,19.22
2023-05-05T14:35:55.665Z,19.30
2023-05-05T14:38:22.199Z,19.37
2023-05-05T14:40:48.746Z,19.43
2023-05-05T14:43:15.310Z,19.48
2023-05-05T14:45:42.020Z,19.41
2023-05-05T14:48:08.796Z,19.35
2023-05-05T14:50:35.360Z,19.34
2023-05-05T14:53:01.906Z,19.18
2023-05-05T14:55:28.493Z,19.28
2023-05-05T14:57:55.002Z,19.38
2023-05-05T15:00:26.434Z,19.43
2023-05-05T15:02:53.041Z,19.34
2023-05-05T15:05:19.594Z,19.21
2023-05-05T15:07:46.164Z,18.73
2023-05-05T15:10:12.739Z,18.62
2023-05-05T15:12:39.279Z,18.85
2023-05-05T15:15:09.222Z,19.23
2023-05-05T15:17:44.551Z,19.31
2023-05-05T15:20:11.632Z,19.41
2023-05-05T15:22:38.349Z,19.50
2023-05-05T15:25:08.959Z,19.60
2023-05-05T15:27:37.124Z,19.75
2023-05-05T15:30:04.795Z,19.82
2023-05-05T15:32:31.954Z,19.90
2023-05-05T15:34:58.626Z,19.87
2023-05-05T15:37:27.383Z,19.85
2023-05-05T15:39:55.171Z,19.81
2023-05-05T15:42:21.717Z,19.77
2023-05-05T15:44:48.212Z,19.89
2023-05-05T15:47:14.849Z,20.04
2023-05-05T15:49:41.357Z,20.15
2023-05-05T15:52:07.998Z,20.21
2023-05-05T15:54:34.875Z,20.26
2023-05-05T15:57:03.034Z,20.11
2023-05-05T15:59:29.504Z,20.22
2023-05-05T16:01:56.130Z,20.29
2023-05-05T16:04:22.580Z,20.40
2023-05-05T16:06:49.092Z,20.44
2023-05-05T16:09:15.640Z,20.28
2023-05-05T16:11:42.197Z,20.15
2023-05-05T16:14:08.695Z,20.05
2023-05-05T16:16:35.377Z,20.01
2023-05-05T16:19:01.952Z,20.02
2023-05-05T16:21:28.461Z,19.97
2023-05-05T16:23:56.940Z,19.89
2023-05-05T16:26:23.473Z,19.94
2023-05-05T16:28:50.282Z,19.92
2023-05-05T16:31:16.843Z,20.02
2023-05-05T16:33:43.669Z,19.90
2023-05-05T16:36:12.194Z,19.83
2023-05-05T16:38:42.092Z,19.90
2023-05-05T16:41:08.657Z,19.95
2023-05-05T16:43:37.040Z,19.89
2023-05-05T16:46:04.193Z,19.86
2023-05-05T16:48:30.810Z,19.74
2023-05-05T16:50:57.940Z,19.75
2023-05-05T16:53:25.012Z,19.78
2023-05-05T16:55:53.126Z,19.72
2023-05-05T16:58:22.295Z,19.61
2023-05-05T17:00:50.394Z,19.53
2023-05-05T17:03:18.921Z,19.54
2023-05-05T17:05:49.808Z,19.25
2023-05-05T17:08:16.760Z,18.84
2023-05-05T17:10:45.304Z,18.58
2023-05-05T17:13:14.100Z,18.24
2023-05-05T17:15:41.388Z,17.97
2023-05-05T17:18:08.700Z,17.54
2023-05-05T17:20:37.430Z,16.81
2023-05-05T17:23:04.820Z,16.55
2023-05-05T17:25:31.924Z,16.43
2023-05-05T17:27:58.483Z,16.17
2023-05-05T17:30:25.226Z,16.20
2023-05-05T17:32:52.037Z,16.28
2023-05-05T17:35:18.894Z,16.26
2023-05-05T17:37:45.626Z,16.32
2023-05-05T17:40:12.307Z,16.09
2023-05-05T17:42:38.923Z,16.01
2023-05-05T17:45:06.609Z,16.04
2023-05-05T17:47:33.296Z,15.92
2023-05-05T17:50:00.098Z,15.95
2023-05-05T17:52:26.942Z,16.07
2023-05-05T17:54:53.462Z,16.15
2023-05-05T17:57:22.787Z,16.12
2023-05-05T17:59:50.043Z,16.05
2023-05-05T18:02:17.051Z,16.16
2023-05-05T18:04:43.730Z,16.04
2023-05-05T18:07:12.190Z,15.99
2023-05-05T18:09:39.102Z,16.00
2023-05-05T18:12:06.821Z,15.87
2023-05-05T18:14:33.901Z,15.83
2023-05-05T18:17:01.214Z,15.86
2023-05-05T18:19:30.018Z,15.86
2023-05-05T18:21:57.429Z,15.78
2023-05-05T18:24:24.018Z,15.68
2023-05-05T18:26:53.157Z,15.64
2023-05-05T18:29:21.745Z,15.67
2023-05-05T18:31:51.751Z,15.54
2023-05-05T18:34:20.342Z,15.52
2023-05-05T18:36:52.736Z,15.50
2023-05-05T18:39:26.653Z,15.44
2023-05-05T18:41:53.340Z,15.45
2023-05-05T18:44:20.208Z,15.52
2023-05-05T18:46:48.217Z,15.55
2023-05-05T18:49:15.275Z,15.55
2023-05-05T18:51:41.903Z,15.40
2023-05-05T18:54:08.419Z,15.22
2023-05-05T18:56:35.000Z,15.11
2023-05-05T18:59:01.538Z,14.98
2023-05-05T19:01:28.080Z,14.83
2023-05-05T19:03:54.624Z,14.85
2023-05-05T19:06:21.155Z,14.96
2023-05-05T19:08:47.963Z,15.02
2023-05-05T19:11:14.991Z,14.94
2023-05-05T19:13:41.763Z,14.98
2023-05-05T19:16:08.486Z,15.00
2023-05-05T19:18:35.200Z,14.96
2023-05-05T19:21:02.345Z,14.76
2023-05-05T19:23:31.778Z,14.71
2023-05-05T19:26:00.363Z,14.68
2023-05-05T19:28:26.940Z,14.58
2023-05-05T19:30:53.531Z,14.62
2023-05-05T19:33:20.160Z,14.51
2023-05-05T19:35:47.054Z,14.37
2023-05-05T19:38:13.656Z,14.27
2023-05-05T19:40:41.096Z,14.10
2023-05-05T19:43:08.322Z,13.79
2023-05-05T19:45:37.630Z,13.78
2023-05-05T19:48:04.647Z,13.85
2023-05-05T19:50:31.551Z,13.72
2023-05-05T19:52:58.326Z,13.63
2023-05-05T19:55:25.049Z,13.64
2023-05-05T19:57:51.585Z,13.65
2023-05-05T20:00:19.529Z,13.57
2023-05-05T20:02:46.416Z,13.30
2023-05-05T20:05:14.865Z,13.24
2023-05-05T20:07:44.334Z,13.21
2023-05-05T20:10:12.984Z,13.28
2023-05-05T20:12:42.395Z,13.11
2023-05-05T20:15:11.170Z,13.06
2023-05-05T20:17:37.694Z,13.34
2023-05-05T20:20:04.841Z,13.46
2023-05-05T20:22:31.527Z,13.55
2023-05-05T20:24:58.204Z,13.51
2023-05-05T20:27:28.746Z,13.44
2023-05-05T20:29:55.407Z,13.40
2023-05-05T20:32:21.972Z,13.49
2023-05-05T20:34:48.604Z,13.38
2023-05-05T20:37:15.248Z,13.39
2023-05-05T20:39:43.635Z,13.41
2023-05-05T20:42:10.792Z,13.47
2023-05-05T20:44:37.620Z,13.41
2023-05-05T20:47:04.706Z,13.41
2023-05-05T20:49:31.426Z,13.55
2023-05-05T20:51:58.759Z,13.65
2023-05-05T20:54:25.240Z,13.67
2023-05-05T20:56:53.027Z,13.65
2023-05-05T20:59:19.531Z,13.51
2023-05-05T21:01:46.129Z,13.51
2023-05-05T21:04:12.652Z,13.59
2023-05-05T21:06:39.081Z,13.59
2023-05-05T21:09:05.660Z,13.55
2023-05-05T21:11:32.275Z,13.36
2023-05-05T21:13:58.811Z,13.56
2023-05-05T21:16:25.500Z,13.63
2023-05-05T21:19:00.669Z,13.59
2023-05-05T21:21:29.766Z,13.58
2023-05-05T21:23:57.565Z,13.56
2023-05-05T21:26:25.035Z,13.41
2023-05-05T21:28:52.523Z,13.25
2023-05-05T21:31:22.150Z,12.91
2023-05-05T21:33:51.763Z,12.85
2023-05-05T21:36:25.705Z,12.67
2023-05-05T21:38:56.697Z,12.59
2023-05-05T21:41:24.490Z,12.56
2023-05-05T21:43:51.002Z,12.49
2023-05-05T21:46:20.358Z,12.41
2023-05-05T21:48:50.275Z,12.22
2023-05-05T21:51:17.339Z,12.13
2023-05-05T21:53:43.990Z,12.01
2023-05-05T21:56:10.541Z,11.98
2023-05-05T21:58:37.078Z,11.99
2023-05-05T22:01:03.723Z,11.97
2023-05-05T22:03:30.435Z,11.93
2023-05-05T22:06:04.888Z,11.85
2023-05-05T22:08:31.413Z,11.78
2023-05-05T22:11:00.514Z,11.65
2023-05-05T22:13:26.996Z,11.77
2023-05-05T22:15:58.698Z,11.81
2023-05-05T22:18:25.272Z,11.77
2023-05-05T22:20:52.133Z,11.65
2023-05-05T22:23:18.703Z,11.67
2023-05-05T22:25:45.350Z,11.78
2023-05-05T22:28:11.988Z,11.81
2023-05-05T22:30:40.653Z,11.82
2023-05-05T22:33:16.791Z,11.56
2023-05-05T22:35:43.322Z,11.52
2023-05-05T22:38:09.880Z,11.52
2023-05-05T22:40:36.425Z,11.55
2023-05-05T22:43:02.910Z,11.55
2023-05-05T22:45:31.468Z,11.62
2023-05-05T22:47:58.013Z,11.71
2023-05-05T22:50:24.659Z,11.82
2023-05-05T22:52:51.181Z,11.89
2023-05-05T22:55:17.797Z,11.89
2023-05-05T22:57:44.326Z,11.94
2023-05-05T23:00:11.293Z,11.83
2023-05-05T23:02:38.851Z,11.75
2023-05-05T23:05:05.920Z,11.69
2023-05-05T23:07:32.407Z,11.59
2023-05-05T23:10:07.790Z,11.71
2023-05-05T23:12:43.001Z,11.78
2023-05-05T23:15:10.642Z,11.74
2023-05-05T23:17:37.398Z,11.83
2023-05-05T23:20:04.496Z,11.75
2023-05-05T23:22:41.333Z,11.82
2023-05-05T23:25:11.554Z,11.91
2023-05-05T23:27:44.995Z,11.91
2023-05-05T23:30:12.438Z,11.98
2023-05-05T23:32:39.034Z,12.04
2023-05-05T23:35:20.183Z,11.92
2023-05-05T23:37:46.694Z,11.81
2023-05-05T23:40:13.214Z,11.77
2023-05-05T23:42:48.399Z,11.77
2023-05-05T23:45:15.981Z,11.88
2023-05-05T23:47:43.505Z,12.01
2023-05-05T23:50:10.185Z,12.05
2023-05-05T23:52:36.675Z,11.95
2023-05-05T23:55:03.334Z,11.91
2023-05-05T23:57:29.821Z,11.96
2023-05-05T23:59:56.271Z,12.06
